sensor_id;sensor_type;location;lat;lon;timestamp;pressure;altitude;pressure_sealevel;temperature;humidity
16094;BME280;8151;47.824;12.092;2023-01-16T00:01:29;95428.03;;;3.85;72.73
16094;BME280;8151;47.824;12.092;2023-01-16T00:04:07;95423.09;;;3.82;72.89
16094;BME280;8151;47.824;12.092;2023-01-16T00:06:36;95419.81;;;3.80;72.84
16094;BME280;8151;47.824;12.092;2023-01-16T00:09:04;95412.03;;;3.70;73.00
16094;BME280;8151;47.824;12.092;2023-01-16T00:11:33;95404.19;;;3.52;73.32
16094;BME280;8151;47.824;12.092;2023-01-16T00:14:03;95406.72;;;3.44;73.49
16094;BME280;8151;47.824;12.092;2023-01-16T00:16:31;95405.38;;;3.40;73.79
16094;BME280;8151;47.824;12.092;2023-01-16T00:19:04;95401.41;;;3.35;73.75
16094;BME280;8151;47.824;12.092;2023-01-16T00:21:32;95390.56;;;3.30;73.55
16094;BME280;8151;47.824;12.092;2023-01-16T00:24:01;95385.19;;;3.32;73.93
16094;BME280;8151;47.824;12.092;2023-01-16T00:26:29;95386.06;;;3.41;73.85
16094;BME280;8151;47.824;12.092;2023-01-16T00:28:58;95381.25;;;3.46;73.34
16094;BME280;8151;47.824;12.092;2023-01-16T00:31:30;95371.72;;;3.45;73.28
16094;BME280;8151;47.824;12.092;2023-01-16T00:33:58;95367.91;;;3.39;73.20
16094;BME280;8151;47.824;12.092;2023-01-16T00:36:27;95356.28;;;3.33;73.54
16094;BME280;8151;47.824;12.092;2023-01-16T00:38:55;95351.34;;;3.30;73.55
16094;BME280;8151;47.824;12.092;2023-01-16T00:41:24;95356.78;;;3.19;73.40
16094;BME280;8151;47.824;12.092;2023-01-16T00:43:52;95352.88;;;3.05;73.66
16094;BME280;8151;47.824;12.092;2023-01-16T00:46:21;95351.91;;;3.06;73.83
16094;BME280;8151;47.824;12.092;2023-01-16T00:48:51;95355.22;;;3.08;73.73
16094;BME280;8151;47.824;12.092;2023-01-16T00:51:20;95344.75;;;3.08;73.62
16094;BME280;8151;47.824;12.092;2023-01-16T00:53:48;95346.53;;;3.08;73.70
16094;BME280;8151;47.824;12.092;2023-01-16T00:56:16;95338.69;;;3.08;73.59
16094;BME280;8151;47.824;12.092;2023-01-16T00:58:45;95339.69;;;3.07;73.51
16094;BME280;8151;47.824;12.092;2023-01-16T01:01:13;95330.78;;;3.00;73.65
16094;BME280;8151;47.824;12.092;2023-01-16T01:03:42;95327.94;;;2.93;73.92
16094;BME280;8151;47.824;12.092;2023-01-16T01:06:11;95323.28;;;2.87;73.84
16094;BME280;8151;47.824;12.092;2023-01-16T01:08:40;95320.81;;;2.85;73.90
16094;BME280;8151;47.824;12.092;2023-01-16T01:11:09;95317.63;;;2.91;74.00
16094;BME280;8151;47.824;12.092;2023-01-16T01:13:39;95313.75;;;2.95;73.79
16094;BME280;8151;47.824;12.092;2023-01-16T01:16:10;95314.81;;;3.03;73.56
16094;BME280;8151;47.824;12.092;2023-01-16T01:18:39;95309.00;;;3.09;73.47
16094;BME280;8151;47.824;12.092;2023-01-16T01:21:08;95303.16;;;3.15;73.05
16094;BME280;8151;47.824;12.092;2023-01-16T01:23:38;95303.16;;;3.15;73.22
16094;BME280;8151;47.824;12.092;2023-01-16T01:26:08;95297.25;;;3.13;73.35
16094;BME280;8151;47.824;12.092;2023-01-16T01:28:37;95294.66;;;3.13;73.68
16094;BME280;8151;47.824;12.092;2023-01-16T01:31:09;95288.44;;;3.14;73.42
16094;BME280;8151;47.824;12.092;2023-01-16T01:33:38;95291.38;;;3.11;73.39
16094;BME280;8151;47.824;12.092;2023-01-16T01:36:07;95284.78;;;3.07;73.46
16094;BME280;8151;47.824;12.092;2023-01-16T01:38:37;95283.13;;;3.06;73.52
16094;BME280;8151;47.824;12.092;2023-01-16T01:41:06;95278.22;;;3.03;73.59
16094;BME280;8151;47.824;12.092;2023-01-16T01:43:42;95276.03;;;2.98;73.76
16094;BME280;8151;47.824;12.092;2023-01-16T01:46:19;95277.03;;;2.97;73.71
16094;BME280;8151;47.824;12.092;2023-01-16T01:48:51;95270.28;;;2.94;74.22
16094;BME280;8151;47.824;12.092;2023-01-16T01:51:24;95263.28;;;2.95;73.99
16094;BME280;8151;47.824;12.092;2023-01-16T01:53:56;95258.75;;;2.97;73.88
16094;BME280;8151;47.824;12.092;2023-01-16T01:56:28;95260.50;;;2.96;73.92
16094;BME280;8151;47.824;12.092;2023-01-16T01:59:01;95256.78;;;2.99;73.89
16094;BME280;8151;47.824;12.092;2023-01-16T02:01:30;95251.19;;;2.94;73.90
16094;BME280;8151;47.824;12.092;2023-01-16T02:04:01;95252.06;;;2.85;73.96
16094;BME280;8151;47.824;12.092;2023-01-16T02:06:37;95244.16;;;2.76;74.33
16094;BME280;8151;47.824;12.092;2023-01-16T02:09:09;95238.31;;;2.65;74.24
16094;BME280;8151;47.824;12.092;2023-01-16T02:11:43;95233.38;;;2.62;74.58
16094;BME280;8151;47.824;12.092;2023-01-16T02:14:15;95220.84;;;2.65;74.48
16094;BME280;8151;47.824;12.092;2023-01-16T02:16:44;95218.78;;;2.69;74.37
16094;BME280;8151;47.824;12.092;2023-01-16T02:19:42;95208.03;;;2.72;74.42
16094;BME280;8151;47.824;12.092;2023-01-16T02:26:08;95191.84;;;2.68;74.32
16094;BME280;8151;47.824;12.092;2023-01-16T02:31:55;95178.47;;;2.71;74.16
16094;BME280;8151;47.824;12.092;2023-01-16T02:34:46;95177.00;;;2.69;74.09
16094;BME280;8151;47.824;12.092;2023-01-16T02:37:25;95166.00;;;2.65;74.03
16094;BME280;8151;47.824;12.092;2023-01-16T02:40:04;95159.97;;;2.65;74.17
16094;BME280;8151;47.824;12.092;2023-01-16T02:42:42;95154.75;;;2.65;73.97
16094;BME280;8151;47.824;12.092;2023-01-16T02:45:17;95149.53;;;2.65;74.29
16094;BME280;8151;47.824;12.092;2023-01-16T02:47:55;95148.88;;;2.63;74.36
16094;BME280;8151;47.824;12.092;2023-01-16T02:50:28;95149.00;;;2.61;74.30
16094;BME280;8151;47.824;12.092;2023-01-16T02:53:04;95141.78;;;2.55;74.47
16094;BME280;8151;47.824;12.092;2023-01-16T02:55:42;95137.69;;;2.52;74.42
16094;BME280;8151;47.824;12.092;2023-01-16T02:58:14;95137.38;;;2.55;74.60
16094;BME280;8151;47.824;12.092;2023-01-16T03:00:52;95123.34;;;2.56;74.52
16094;BME280;8151;47.824;12.092;2023-01-16T03:03:38;95120.16;;;2.63;74.18
16094;BME280;8151;47.824;12.092;2023-01-16T03:06:27;95103.00;;;2.60;74.14
16094;BME280;8151;47.824;12.092;2023-01-16T03:09:11;95108.34;;;2.59;74.11
16094;BME280;8151;47.824;12.092;2023-01-16T03:11:50;95104.41;;;2.54;74.06
16094;BME280;8151;47.824;12.092;2023-01-16T03:14:30;95092.97;;;2.55;73.98
16094;BME280;8151;47.824;12.092;2023-01-16T03:17:15;95089.28;;;2.58;74.07
16094;BME280;8151;47.824;12.092;2023-01-16T03:19:59;95079.31;;;2.62;74.02
16094;BME280;8151;47.824;12.092;2023-01-16T03:22:33;95077.69;;;2.61;73.90
16094;BME280;8151;47.824;12.092;2023-01-16T03:25:18;95070.81;;;2.60;73.86
16094;BME280;8151;47.824;12.092;2023-01-16T03:27:56;95062.50;;;2.56;73.91
16094;BME280;8151;47.824;12.092;2023-01-16T03:30:31;95052.50;;;2.51;73.88
16094;BME280;8151;47.824;12.092;2023-01-16T03:33:05;95042.50;;;2.47;74.13
16094;BME280;8151;47.824;12.092;2023-01-16T03:35:40;95042.50;;;2.47;73.90
16094;BME280;8151;47.824;12.092;2023-01-16T03:38:12;95033.69;;;2.48;74.10
16094;BME280;8151;47.824;12.092;2023-01-16T03:40:44;95028.31;;;2.49;74.12
16094;BME280;8151;47.824;12.092;2023-01-16T03:43:18;95028.19;;;2.51;74.17
16094;BME280;8151;47.824;12.092;2023-01-16T03:45:51;95020.19;;;2.52;73.80
16094;BME280;8151;47.824;12.092;2023-01-16T03:48:25;95009.63;;;2.54;74.02
16094;BME280;8151;47.824;12.092;2023-01-16T03:51:01;95006.81;;;2.55;73.65
16094;BME280;8151;47.824;12.092;2023-01-16T03:53:34;95001.09;;;2.52;74.09
16094;BME280;8151;47.824;12.092;2023-01-16T03:56:11;94996.19;;;2.49;74.19
16094;BME280;8151;47.824;12.092;2023-01-16T03:58:49;94987.38;;;2.50;73.99
16094;BME280;8151;47.824;12.092;2023-01-16T04:01:24;94980.53;;;2.49;74.36
16094;BME280;8151;47.824;12.092;2023-01-16T04:04:00;94968.59;;;2.46;74.12
16094;BME280;8151;47.824;12.092;2023-01-16T04:06:35;94960.06;;;2.44;74.05
16094;BME280;8151;47.824;12.092;2023-01-16T04:09:10;94955.84;;;2.43;74.23
16094;BME280;8151;47.824;12.092;2023-01-16T04:11:40;94956.00;;;2.42;74.40
16094;BME280;8151;47.824;12.092;2023-01-16T04:14:12;94947.34;;;2.41;74.27
16094;BME280;8151;47.824;12.092;2023-01-16T04:16:42;94934.59;;;2.38;74.08
16094;BME280;8151;47.824;12.092;2023-01-16T04:19:12;94928.03;;;2.34;74.27
16094;BME280;8151;47.824;12.092;2023-01-16T04:21:46;94924.63;;;2.33;74.20
16094;BME280;8151;47.824;12.092;2023-01-16T04:24:15;94911.88;;;2.30;74.32
16094;BME280;8151;47.824;12.092;2023-01-16T04:26:43;94907.50;;;2.31;74.38
16094;BME280;8151;47.824;12.092;2023-01-16T04:29:12;94907.50;;;2.31;74.43
16094;BME280;8151;47.824;12.092;2023-01-16T04:31:40;94898.66;;;2.32;74.19
16094;BME280;8151;47.824;12.092;2023-01-16T04:34:08;94891.84;;;2.31;74.57
16094;BME280;8151;47.824;12.092;2023-01-16T04:36:37;94884.00;;;2.31;74.36
16094;BME280;8151;47.824;12.092;2023-01-16T04:39:07;94895.41;;;2.30;74.25
16094;BME280;8151;47.824;12.092;2023-01-16T04:41:35;94891.16;;;2.29;74.09
16094;BME280;8151;47.824;12.092;2023-01-16T04:44:05;94890.19;;;2.30;74.30
16094;BME280;8151;47.824;12.092;2023-01-16T04:46:34;94884.00;;;2.31;74.29
16094;BME280;8151;47.824;12.092;2023-01-16T04:49:05;94868.34;;;2.31;74.29
16094;BME280;8151;47.824;12.092;2023-01-16T04:51:34;94870.13;;;2.30;74.27
16094;BME280;8151;47.824;12.092;2023-01-16T04:54:02;94858.19;;;2.28;74.15
16094;BME280;8151;47.824;12.092;2023-01-16T04:56:32;94849.72;;;2.26;74.36
16094;BME280;8151;47.824;12.092;2023-01-16T04:59:03;94850.84;;;2.23;74.25
16094;BME280;8151;47.824;12.092;2023-01-16T05:01:31;94828.19;;;2.24;74.16
16094;BME280;8151;47.824;12.092;2023-01-16T05:04:03;94819.34;;;2.25;74.22
16094;BME280;8151;47.824;12.092;2023-01-16T05:06:32;94819.34;;;2.25;74.19
16094;BME280;8151;47.824;12.092;2023-01-16T05:09:01;94821.81;;;2.26;74.13
16094;BME280;8151;47.824;12.092;2023-01-16T05:11:32;94805.50;;;2.24;74.44
16094;BME280;8151;47.824;12.092;2023-01-16T05:14:01;94803.88;;;2.23;74.16
16094;BME280;8151;47.824;12.092;2023-01-16T05:16:29;94803.03;;;2.23;74.26
16094;BME280;8151;47.824;12.092;2023-01-16T05:18:58;94804.84;;;2.22;74.34
16094;BME280;8151;47.824;12.092;2023-01-16T05:21:26;94804.84;;;2.22;74.26
16094;BME280;8151;47.824;12.092;2023-01-16T05:23:54;94809.09;;;2.23;74.35
16094;BME280;8151;47.824;12.092;2023-01-16T05:26:23;94799.47;;;2.24;74.21
16094;BME280;8151;47.824;12.092;2023-01-16T05:28:53;94789.03;;;2.24;74.58
16094;BME280;8151;47.824;12.092;2023-01-16T05:31:21;94786.44;;;2.24;74.61
16094;BME280;8151;47.824;12.092;2023-01-16T05:33:49;94776.94;;;2.23;74.65
16094;BME280;8151;47.824;12.092;2023-01-16T05:36:18;94769.13;;;2.23;74.68
16094;BME280;8151;47.824;12.092;2023-01-16T05:38:47;94772.72;;;2.22;74.65
16094;BME280;8151;47.824;12.092;2023-01-16T05:41:15;94764.75;;;2.23;74.67
16094;BME280;8151;47.824;12.092;2023-01-16T05:43:43;94753.97;;;2.26;74.66
16094;BME280;8151;47.824;12.092;2023-01-16T05:46:13;94755.78;;;2.26;74.67
16094;BME280;8151;47.824;12.092;2023-01-16T05:48:41;94734.25;;;2.24;74.68
16094;BME280;8151;47.824;12.092;2023-01-16T05:51:10;94731.94;;;2.21;74.80
16094;BME280;8151;47.824;12.092;2023-01-16T05:53:39;94720.84;;;2.19;74.77
16094;BME280;8151;47.824;12.092;2023-01-16T05:56:09;94707.94;;;2.17;74.97
16094;BME280;8151;47.824;12.092;2023-01-16T05:58:37;94698.50;;;2.16;74.84
16094;BME280;8151;47.824;12.092;2023-01-16T06:01:06;94688.88;;;2.16;75.05
16094;BME280;8151;47.824;12.092;2023-01-16T06:03:36;94679.44;;;2.15;75.04
16094;BME280;8151;47.824;12.092;2023-01-16T06:06:04;94668.16;;;2.15;75.02
16094;BME280;8151;47.824;12.092;2023-01-16T06:08:33;94669.44;;;2.11;74.89
16094;BME280;8151;47.824;12.092;2023-01-16T06:11:01;94662.75;;;2.08;75.11
16094;BME280;8151;47.824;12.092;2023-01-16T06:13:30;94655.91;;;2.07;75.02
16094;BME280;8151;47.824;12.092;2023-01-16T06:15:58;94657.69;;;2.07;75.08
16094;BME280;8151;47.824;12.092;2023-01-16T06:18:26;94653.63;;;2.04;74.91
16094;BME280;8151;47.824;12.092;2023-01-16T06:20:56;94653.47;;;2.06;75.00
16094;BME280;8151;47.824;12.092;2023-01-16T06:23:25;94647.41;;;2.05;75.19
16094;BME280;8151;47.824;12.092;2023-01-16T06:25:53;94641.25;;;2.06;75.25
16094;BME280;8151;47.824;12.092;2023-01-16T06:28:21;94627.53;;;2.04;75.01
16094;BME280;8151;47.824;12.092;2023-01-16T06:30:51;94626.88;;;2.02;75.23
16094;BME280;8151;47.824;12.092;2023-01-16T06:33:19;94620.69;;;2.03;74.93
16094;BME280;8151;47.824;12.092;2023-01-16T06:35:48;94614.16;;;1.99;75.01
16094;BME280;8151;47.824;12.092;2023-01-16T06:38:18;94607.97;;;2.00;75.08
16094;BME280;8151;47.824;12.092;2023-01-16T06:40:46;94606.31;;;1.99;75.03
16094;BME280;8151;47.824;12.092;2023-01-16T06:43:15;94592.63;;;1.97;75.31
16094;BME280;8151;47.824;12.092;2023-01-16T06:45:43;94582.19;;;1.97;75.32
16094;BME280;8151;47.824;12.092;2023-01-16T06:48:12;94584.66;;;1.99;75.14
16094;BME280;8151;47.824;12.092;2023-01-16T06:50:41;94577.63;;;1.99;75.19
16094;BME280;8151;47.824;12.092;2023-01-16T06:53:09;94562.78;;;2.00;75.13
16094;BME280;8151;47.824;12.092;2023-01-16T06:55:40;94559.06;;;2.02;75.36
16094;BME280;8151;47.824;12.092;2023-01-16T06:58:09;94561.53;;;2.04;75.30
16094;BME280;8151;47.824;12.092;2023-01-16T07:00:37;94550.25;;;2.03;75.21
16094;BME280;8151;47.824;12.092;2023-01-16T07:03:06;94551.91;;;2.04;75.12
16094;BME280;8151;47.824;12.092;2023-01-16T07:05:34;94540.31;;;2.07;75.07
16094;BME280;8151;47.824;12.092;2023-01-16T07:08:03;94531.53;;;2.08;75.14
16094;BME280;8151;47.824;12.092;2023-01-16T07:10:31;94524.19;;;2.11;75.06
16094;BME280;8151;47.824;12.092;2023-01-16T07:13:01;94506.91;;;2.10;75.21
16094;BME280;8151;47.824;12.092;2023-01-16T07:15:29;94506.91;;;2.10;75.34
16094;BME280;8151;47.824;12.092;2023-01-16T07:18:27;94497.44;;;2.09;74.96
16094;BME280;8151;47.824;12.092;2023-01-16T07:21:13;94491.25;;;2.10;75.22
16094;BME280;8151;47.824;12.092;2023-01-16T07:24:01;94484.25;;;2.11;75.03
16094;BME280;8151;47.824;12.092;2023-01-16T07:26:31;94470.06;;;2.13;75.12
16094;BME280;8151;47.824;12.092;2023-01-16T07:29:01;94464.66;;;2.15;74.87
16094;BME280;8151;47.824;12.092;2023-01-16T07:31:31;94459.94;;;2.19;74.92
16094;BME280;8151;47.824;12.092;2023-01-16T07:34:00;94459.28;;;2.25;74.98
16094;BME280;8151;47.824;12.092;2023-01-16T07:36:28;94444.63;;;2.32;74.77
16094;BME280;8151;47.824;12.092;2023-01-16T07:38:56;94433.50;;;2.38;74.50
16094;BME280;8151;47.824;12.092;2023-01-16T07:41:25;94426.66;;;2.45;74.65
16094;BME280;8151;47.824;12.092;2023-01-16T07:43:53;94418.97;;;2.52;74.63
16094;BME280;8151;47.824;12.092;2023-01-16T07:46:23;94411.94;;;2.61;74.50
16094;BME280;8151;47.824;12.092;2023-01-16T07:48:51;94410.94;;;2.70;74.40
16094;BME280;8151;47.824;12.092;2023-01-16T07:51:22;94403.88;;;2.79;74.21
16094;BME280;8151;47.824;12.092;2023-01-16T07:53:50;94396.22;;;2.85;74.11
16094;BME280;8151;47.824;12.092;2023-01-16T07:56:19;94382.47;;;2.91;74.24
16094;BME280;8151;47.824;12.092;2023-01-16T07:58:48;94369.03;;;2.94;74.21
16094;BME280;8151;47.824;12.092;2023-01-16T08:01:20;94362.31;;;3.00;74.20
16094;BME280;8151;47.824;12.092;2023-01-16T08:03:49;94363.59;;;3.04;74.17
16094;BME280;8151;47.824;12.092;2023-01-16T08:06:18;94354.28;;;3.10;74.12
16094;BME280;8151;47.824;12.092;2023-01-16T08:08:46;94333.84;;;3.13;74.07
16094;BME280;8151;47.824;12.092;2023-01-16T08:11:14;94331.53;;;3.19;73.91
16094;BME280;8151;47.824;12.092;2023-01-16T08:14:01;94317.94;;;3.23;73.81
16094;BME280;8151;47.824;12.092;2023-01-16T08:16:29;94308.44;;;3.30;73.63
16094;BME280;8151;47.824;12.092;2023-01-16T08:18:59;94299.25;;;3.34;73.85
16094;BME280;8151;47.824;12.092;2023-01-16T08:21:27;94289.09;;;3.40;73.64
16094;BME280;8151;47.824;12.092;2023-01-16T08:23:56;94287.13;;;3.42;73.74
16094;BME280;8151;47.824;12.092;2023-01-16T08:26:24;94284.97;;;3.45;73.51
16094;BME280;8151;47.824;12.092;2023-01-16T08:28:53;94277.41;;;3.50;73.25
16094;BME280;8151;47.824;12.092;2023-01-16T08:31:21;94263.81;;;3.55;73.27
16094;BME280;8151;47.824;12.092;2023-01-16T08:33:50;94265.56;;;3.63;73.54
16094;BME280;8151;47.824;12.092;2023-01-16T08:36:20;94252.41;;;3.71;73.20
16094;BME280;8151;47.824;12.092;2023-01-16T08:38:49;94254.13;;;3.79;72.92
16094;BME280;8151;47.824;12.092;2023-01-16T08:41:18;94246.91;;;3.81;73.28
16094;BME280;8151;47.824;12.092;2023-01-16T08:44:04;94245.56;;;3.85;73.11
16094;BME280;8151;47.824;12.092;2023-01-16T08:46:55;94231.75;;;3.91;73.14
16094;BME280;8151;47.824;12.092;2023-01-16T08:49:42;94231.03;;;3.97;73.13
16094;BME280;8151;47.824;12.092;2023-01-16T08:52:33;94227.50;;;4.05;73.04
16094;BME280;8151;47.824;12.092;2023-01-16T08:55:04;94220.56;;;4.12;72.81
16094;BME280;8151;47.824;12.092;2023-01-16T08:57:33;94219.84;;;4.18;72.74
16094;BME280;8151;47.824;12.092;2023-01-16T09:00:04;94212.91;;;4.25;72.50
16094;BME280;8151;47.824;12.092;2023-01-16T09:02:33;94212.25;;;4.38;72.63
16094;BME280;8151;47.824;12.092;2023-01-16T09:05:04;94211.97;;;4.48;72.33
16094;BME280;8151;47.824;12.092;2023-01-16T09:07:36;94202.19;;;4.57;72.57
16094;BME280;8151;47.824;12.092;2023-01-16T09:10:05;94205.53;;;4.65;72.42
16094;BME280;8151;47.824;12.092;2023-01-16T09:12:34;94200.34;;;4.72;71.97
16094;BME280;8151;47.824;12.092;2023-01-16T09:15:20;94187.75;;;4.82;72.12
16094;BME280;8151;47.824;12.092;2023-01-16T09:17:48;94185.38;;;4.87;72.08
16094;BME280;8151;47.824;12.092;2023-01-16T09:20:17;94171.72;;;4.92;71.84
16094;BME280;8151;47.824;12.092;2023-01-16T09:22:47;94168.56;;;4.97;72.08
16094;BME280;8151;47.824;12.092;2023-01-16T09:25:15;94170.59;;;5.01;71.67
16094;BME280;8151;47.824;12.092;2023-01-16T09:27:43;94157.31;;;5.03;71.80
16094;BME280;8151;47.824;12.092;2023-01-16T09:30:15;94163.53;;;5.02;71.74
16094;BME280;8151;47.824;12.092;2023-01-16T09:32:44;94155.88;;;5.00;71.14
16094;BME280;8151;47.824;12.092;2023-01-16T09:35:15;94152.44;;;5.00;70.97
16094;BME280;8151;47.824;12.092;2023-01-16T09:37:44;94142.22;;;5.05;71.20
16094;BME280;8151;47.824;12.092;2023-01-16T09:40:16;94139.63;;;5.11;70.96
16094;BME280;8151;47.824;12.092;2023-01-16T09:42:53;94135.63;;;5.16;70.81
16094;BME280;8151;47.824;12.092;2023-01-16T09:45:45;94123.97;;;5.18;70.55
16094;BME280;8151;47.824;12.092;2023-01-16T09:48:20;94119.59;;;5.25;70.50
16094;BME280;8151;47.824;12.092;2023-01-16T09:50:53;94108.72;;;5.28;70.45
16094;BME280;8151;47.824;12.092;2023-01-16T09:53:30;94100.25;;;5.33;70.17
16094;BME280;8151;47.824;12.092;2023-01-16T09:56:22;94096.91;;;5.39;69.99
16094;BME280;8151;47.824;12.092;2023-01-16T09:59:19;94086.19;;;5.41;69.88
16094;BME280;8151;47.824;12.092;2023-01-16T10:01:54;94073.31;;;5.46;69.37
16094;BME280;8151;47.824;12.092;2023-01-16T10:04:25;94067.50;;;5.50;69.25
16094;BME280;8151;47.824;12.092;2023-01-16T10:07:08;94046.94;;;5.54;69.12
16094;BME280;8151;47.824;12.092;2023-01-16T10:09:44;94043.34;;;5.62;68.89
16094;BME280;8151;47.824;12.092;2023-01-16T10:12:17;94029.69;;;5.73;69.00
16094;BME280;8151;47.824;12.092;2023-01-16T10:14:55;94027.72;;;5.82;68.76
16094;BME280;8151;47.824;12.092;2023-01-16T10:17:33;94019.84;;;5.88;68.57
16094;BME280;8151;47.824;12.092;2023-01-16T10:20:27;93995.28;;;5.96;68.13
16094;BME280;8151;47.824;12.092;2023-01-16T10:23:07;93994.09;;;6.05;67.89
16094;BME280;8151;47.824;12.092;2023-01-16T10:25:46;93988.84;;;6.12;67.69
16094;BME280;8151;47.824;12.092;2023-01-16T10:28:29;93972.09;;;6.20;67.20
16094;BME280;8151;47.824;12.092;2023-01-16T10:31:05;93963.22;;;6.27;67.30
16094;BME280;8151;47.824;12.092;2023-01-16T10:33:41;93958.00;;;6.34;67.51
16094;BME280;8151;47.824;12.092;2023-01-16T10:36:20;93948.06;;;6.43;67.45
16094;BME280;8151;47.824;12.092;2023-01-16T10:38:53;93923.81;;;6.47;67.18
16094;BME280;8151;47.824;12.092;2023-01-16T10:41:27;93926.84;;;6.51;67.01
16094;BME280;8151;47.824;12.092;2023-01-16T10:44:27;93918.19;;;6.50;66.81
16094;BME280;8151;47.824;12.092;2023-01-16T10:47:17;93913.72;;;6.58;66.99
16094;BME280;8151;47.824;12.092;2023-01-16T10:50:04;93906.84;;;6.70;66.94
16094;BME280;8151;47.824;12.092;2023-01-16T10:52:33;93901.97;;;6.80;66.61
16094;BME280;8151;47.824;12.092;2023-01-16T10:55:03;93884.16;;;6.89;66.27
16094;BME280;8151;47.824;12.092;2023-01-16T10:57:32;93882.94;;;6.98;66.42
16094;BME280;8151;47.824;12.092;2023-01-16T11:00:06;93871.97;;;7.01;65.99
16094;BME280;8151;47.824;12.092;2023-01-16T11:02:39;93865.72;;;6.96;66.39
16094;BME280;8151;47.824;12.092;2023-01-16T11:05:27;93842.72;;;6.91;65.93
16094;BME280;8151;47.824;12.092;2023-01-16T11:08:05;93845.69;;;7.01;66.21
16094;BME280;8151;47.824;12.092;2023-01-16T11:10:34;93828.03;;;7.15;66.48
16094;BME280;8151;47.824;12.092;2023-01-16T11:13:03;93815.44;;;7.30;66.35
16094;BME280;8151;47.824;12.092;2023-01-16T11:16:18;93808.06;;;7.46;65.74
16094;BME280;8151;47.824;12.092;2023-01-16T11:19:19;93806.38;;;7.58;65.50
16094;BME280;8151;47.824;12.092;2023-01-16T11:21:50;93790.50;;;7.72;65.49
16094;BME280;8151;47.824;12.092;2023-01-16T11:24:22;93782.13;;;7.81;65.50
16094;BME280;8151;47.824;12.092;2023-01-16T11:26:54;93766.25;;;7.88;65.10
16094;BME280;8151;47.824;12.092;2023-01-16T11:29:26;93761.97;;;7.94;64.74
16094;BME280;8151;47.824;12.092;2023-01-16T11:32:03;93745.09;;;8.01;64.30
16094;BME280;8151;47.824;12.092;2023-01-16T11:34:33;93736.31;;;8.07;64.25
16094;BME280;8151;47.824;12.092;2023-01-16T11:37:03;93740.13;;;8.12;64.23
16094;BME280;8151;47.824;12.092;2023-01-16T11:39:35;93731.34;;;8.18;63.47
16094;BME280;8151;47.824;12.092;2023-01-16T11:42:08;93726.84;;;8.25;63.50
16094;BME280;8151;47.824;12.092;2023-01-16T11:45:13;93715.00;;;8.34;63.00
16094;BME280;8151;47.824;12.092;2023-01-16T11:48:05;93709.84;;;8.39;62.94
16094;BME280;8151;47.824;12.092;2023-01-16T11:50:49;93700.53;;;8.43;62.97
16094;BME280;8151;47.824;12.092;2023-01-16T11:53:18;93705.13;;;8.48;62.65
16094;BME280;8151;47.824;12.092;2023-01-16T11:55:59;93684.84;;;8.48;62.24
16094;BME280;8151;47.824;12.092;2023-01-16T11:58:48;93679.38;;;8.50;61.89
16094;BME280;8151;47.824;12.092;2023-01-16T12:01:23;93676.06;;;8.55;61.81
16094;BME280;8151;47.824;12.092;2023-01-16T12:04:20;93653.06;;;8.62;61.52
16094;BME280;8151;47.824;12.092;2023-01-16T12:06:59;93651.75;;;8.71;61.26
16094;BME280;8151;47.824;12.092;2023-01-16T12:09:51;93646.63;;;8.76;60.36
16094;BME280;8151;47.824;12.092;2023-01-16T12:12:32;93638.47;;;8.78;60.79
16094;BME280;8151;47.824;12.092;2023-01-16T12:15:22;93626.78;;;8.85;60.34
16094;BME280;8151;47.824;12.092;2023-01-16T12:18:04;93615.81;;;8.89;59.75
16094;BME280;8151;47.824;12.092;2023-01-16T12:20:48;93612.38;;;8.88;59.60
16094;BME280;8151;47.824;12.092;2023-01-16T12:23:50;93610.88;;;8.80;59.39
16094;BME280;8151;47.824;12.092;2023-01-16T12:26:28;93607.06;;;8.76;60.15
16094;BME280;8151;47.824;12.092;2023-01-16T12:29:09;93610.28;;;8.78;59.38
16094;BME280;8151;47.824;12.092;2023-01-16T12:31:54;93597.09;;;8.78;58.86
16094;BME280;8151;47.824;12.092;2023-01-16T12:34:50;93595.84;;;8.81;58.48
16094;BME280;8151;47.824;12.092;2023-01-16T12:37:37;93582.75;;;8.74;59.58
16094;BME280;8151;47.824;12.092;2023-01-16T12:40:18;93589.63;;;8.75;59.19
16094;BME280;8151;47.824;12.092;2023-01-16T12:43:00;93589.75;;;8.69;59.26
16094;BME280;8151;47.824;12.092;2023-01-16T12:45:50;93586.59;;;8.60;59.47
16094;BME280;8151;47.824;12.092;2023-01-16T12:48:39;93582.09;;;8.48;59.31
16094;BME280;8151;47.824;12.092;2023-01-16T12:51:22;93575.28;;;8.41;59.80
16094;BME280;8151;47.824;12.092;2023-01-16T12:54:11;93582.69;;;8.32;59.32
16094;BME280;8151;47.824;12.092;2023-01-16T12:57:05;93580.38;;;8.24;59.83
16094;BME280;8151;47.824;12.092;2023-01-16T12:59:39;93594.56;;;8.23;59.57
16094;BME280;8151;47.824;12.092;2023-01-16T13:02:19;93593.41;;;8.19;59.81
16094;BME280;8151;47.824;12.092;2023-01-16T13:04:52;93580.53;;;8.11;60.06
16094;BME280;8151;47.824;12.092;2023-01-16T13:07:22;93587.91;;;8.02;60.00
16094;BME280;8151;47.824;12.092;2023-01-16T13:09:58;93585.00;;;7.92;59.94
16094;BME280;8151;47.824;12.092;2023-01-16T13:12:42;93590.34;;;7.85;60.43
16094;BME280;8151;47.824;12.092;2023-01-16T13:15:34;93593.84;;;7.79;60.46
16094;BME280;8151;47.824;12.092;2023-01-16T13:18:07;93589.25;;;7.74;61.05
16094;BME280;8151;47.824;12.092;2023-01-16T13:20:39;93581.41;;;7.67;61.43
16094;BME280;8151;47.824;12.092;2023-01-16T13:23:14;93582.88;;;7.63;61.64
16094;BME280;8151;47.824;12.092;2023-01-16T13:25:54;93584.34;;;7.59;61.81
16094;BME280;8151;47.824;12.092;2023-01-16T13:28:34;93583.75;;;7.57;62.07
16094;BME280;8151;47.824;12.092;2023-01-16T13:31:12;93584.78;;;7.56;62.10
16094;BME280;8151;47.824;12.092;2023-01-16T13:33:46;93595.53;;;7.55;61.99
16094;BME280;8151;47.824;12.092;2023-01-16T13:42:19;93577.16;;;7.48;62.44
16094;BME280;8151;47.824;12.092;2023-01-16T13:44:53;93590.56;;;7.46;62.25
16094;BME280;8151;47.824;12.092;2023-01-16T13:47:41;93602.28;;;7.44;62.34
16094;BME280;8151;47.824;12.092;2023-01-16T13:50:18;93606.38;;;7.40;62.36
16094;BME280;8151;47.824;12.092;2023-01-16T13:52:48;93609.66;;;7.35;62.98
16094;BME280;8151;47.824;12.092;2023-01-16T13:55:26;93609.72;;;7.28;63.12
16094;BME280;8151;47.824;12.092;2023-01-16T13:58:07;93613.78;;;7.24;63.38
16094;BME280;8151;47.824;12.092;2023-01-16T14:00:37;93607.78;;;7.17;63.40